createdAt,value
2022-10-11T00:00:06.979Z,13.30
2022-10-11T00:02:33.334Z,13.43
2022-10-11T00:04:59.693Z,13.57
2022-10-11T00:07:26.741Z,11.88
2022-10-11T00:09:53.067Z,11.65
2022-10-11T00:12:19.414Z,13.00
2022-10-11T00:14:45.835Z,10.73
2022-10-11T00:17:21.265Z,12.43
2022-10-11T00:19:47.720Z,11.65
2022-10-11T00:22:14.176Z,11.10
2022-10-11T00:24:40.545Z,11.45
2022-10-11T00:27:07.256Z,12.32
2022-10-11T00:29:33.710Z,12.30
2022-10-11T00:32:00.091Z,15.32
2022-10-11T00:34:26.410Z,14.25
2022-10-11T00:36:52.768Z,13.88
2022-10-11T00:39:19.105Z,11.82
2022-10-11T00:41:46.647Z,11.02
2022-10-11T00:44:23.447Z,13.75
2022-10-11T00:46:57.781Z,15.35
2022-10-11T00:49:36.961Z,12.80
2022-10-11T00:52:06.017Z,10.70
2022-10-11T00:54:37.842Z,11.75
2022-10-11T00:57:07.990Z,10.98
2022-10-11T00:59:42.648Z,14.60
2022-10-11T01:02:10.192Z,10.25
2022-10-11T01:04:37.067Z,10.63
2022-10-11T01:07:03.596Z,11.85
2022-10-11T01:09:33.057Z,7.93
2022-10-11T01:12:02.705Z,9.88
2022-10-11T01:14:49.992Z,8.85
2022-10-11T01:17:31.552Z,8.68
2022-10-11T01:20:40.629Z,11.13
2022-10-11T01:23:34.779Z,8.13
2022-10-11T01:26:38.484Z,10.43
2022-10-11T01:29:25.677Z,12.80
2022-10-11T01:32:03.676Z,13.85
2022-10-11T01:34:41.411Z,10.63
2022-10-11T01:37:19.154Z,8.05
2022-10-11T01:40:14.013Z,11.57
2022-10-11T01:42:41.680Z,9.85
2022-10-11T01:45:10.672Z,9.25
2022-10-11T01:47:39.206Z,9.85
2022-10-11T01:50:08.036Z,9.10
2022-10-11T01:52:42.154Z,10.15
2022-10-11T01:55:35.904Z,11.80
2022-10-11T01:58:53.048Z,12.00
2022-10-11T02:01:33.488Z,13.23
2022-10-11T02:04:24.739Z,7.40
2022-10-11T02:07:00.702Z,7.15
2022-10-11T02:09:44.958Z,10.93
2022-10-11T02:12:20.644Z,9.32
2022-10-11T02:14:51.082Z,10.93
2022-10-11T02:17:21.799Z,7.68
2022-10-11T02:19:52.139Z,8.00
2022-10-11T02:22:26.446Z,8.48
2022-10-11T02:24:57.749Z,9.52
2022-10-11T02:27:27.676Z,7.50
2022-10-11T02:29:56.735Z,9.63
2022-10-11T02:32:26.329Z,6.93
2022-10-11T02:34:55.802Z,10.45
2022-10-11T02:37:50.128Z,7.88
2022-10-11T02:40:33.452Z,10.35
2022-10-11T02:43:07.661Z,10.65
2022-10-11T02:46:07.653Z,9.98
2022-10-11T02:48:35.623Z,9.85
2022-10-11T02:51:03.544Z,10.05
2022-10-11T02:53:29.986Z,9.38
2022-10-11T02:55:56.468Z,6.70
2022-10-11T02:58:23.993Z,10.10
2022-10-11T03:00:50.445Z,8.18
2022-10-11T03:03:19.545Z,6.43
2022-10-11T03:05:46.073Z,9.90
2022-10-11T03:08:14.433Z,7.88
2022-10-11T03:10:41.246Z,5.82
2022-10-11T03:13:07.622Z,13.63
2022-10-11T03:15:34.099Z,10.50
2022-10-11T03:18:00.567Z,6.03
2022-10-11T03:20:27.061Z,6.90
2022-10-11T03:22:53.399Z,5.40
2022-10-11T03:25:19.745Z,5.15
2022-10-11T03:27:47.104Z,7.28
2022-10-11T03:30:17.912Z,10.23
2022-10-11T03:32:44.560Z,6.90
2022-10-11T03:35:10.892Z,5.13
2022-10-11T03:37:37.483Z,9.85
2022-10-11T03:40:05.773Z,7.47
2022-10-11T03:42:33.345Z,6.50
2022-10-11T03:45:01.665Z,10.52
2022-10-11T03:47:27.974Z,9.13
2022-10-11T03:49:56.402Z,7.97
2022-10-11T03:52:23.047Z,5.63
2022-10-11T03:54:49.343Z,6.95
2022-10-11T03:57:15.687Z,8.30
2022-10-11T03:59:42.221Z,10.57
2022-10-11T04:02:08.658Z,10.95
2022-10-11T04:04:35.080Z,9.10
2022-10-11T04:07:01.420Z,7.45
2022-10-11T04:09:27.922Z,9.10
2022-10-11T04:11:54.248Z,9.88
2022-10-11T04:14:20.568Z,6.22
2022-10-11T04:16:49.972Z,9.30
2022-10-11T04:19:16.543Z,6.15
2022-10-11T04:21:44.043Z,7.15
2022-10-11T04:24:13.297Z,8.70
2022-10-11T04:26:39.813Z,7.00
2022-10-11T04:29:06.312Z,5.10
2022-10-11T04:31:32.651Z,7.80
2022-10-11T04:33:59.088Z,6.50
2022-10-11T04:36:25.560Z,8.43
2022-10-11T04:38:51.940Z,4.63
2022-10-11T04:41:18.287Z,10.40
2022-10-11T04:43:44.675Z,5.68
2022-10-11T04:46:11.503Z,6.57
2022-10-11T04:48:38.144Z,5.07
2022-10-11T04:51:05.296Z,9.35
2022-10-11T04:53:33.788Z,10.13
2022-10-11T04:56:03.838Z,7.35
2022-10-11T04:58:32.321Z,4.80
2022-10-11T05:00:58.723Z,8.05
2022-10-11T05:03:26.114Z,5.57
2022-10-11T05:05:53.126Z,5.70
2022-10-11T05:08:20.482Z,8.80
2022-10-11T05:11:15.535Z,5.20
2022-10-11T05:13:43.567Z,6.90
2022-10-11T05:16:11.312Z,5.72
2022-10-11T05:18:39.188Z,8.15
2022-10-11T05:21:09.000Z,7.43
2022-10-11T05:23:36.928Z,9.02
2022-10-11T05:26:04.162Z,6.03
2022-10-11T05:28:33.623Z,8.80
2022-10-11T05:31:00.021Z,8.60
2022-10-11T05:33:26.714Z,9.30
2022-10-11T05:35:53.724Z,7.10
2022-10-11T05:38:20.130Z,6.80
2022-10-11T05:40:46.562Z,8.23
2022-10-11T05:43:12.960Z,5.18
2022-10-11T05:45:41.618Z,7.57
2022-10-11T05:48:09.494Z,8.75
2022-10-11T05:50:40.540Z,8.07
2022-10-11T05:53:07.241Z,9.65
2022-10-11T05:55:41.548Z,8.57
2022-10-11T05:58:11.661Z,6.03
2022-10-11T06:00:39.817Z,5.78
2022-10-11T06:03:07.864Z,7.78
2022-10-11T06:05:35.176Z,7.97
2022-10-11T06:08:02.501Z,7.60
2022-10-11T06:10:29.453Z,6.53
2022-10-11T06:12:56.003Z,8.70
2022-10-11T06:15:22.581Z,6.10
2022-10-11T06:17:49.072Z,10.38
2022-10-11T06:20:15.701Z,5.90
2022-10-11T06:22:42.595Z,6.65
2022-10-11T06:25:09.331Z,7.55
2022-10-11T06:27:35.902Z,15.30
2022-10-11T06:30:04.125Z,8.40
2022-10-11T06:32:31.413Z,11.18
2022-10-11T06:34:59.186Z,8.93
2022-10-11T06:37:25.505Z,7.80
2022-10-11T06:39:51.842Z,8.15
2022-10-11T06:42:18.272Z,8.63
2022-10-11T06:44:49.600Z,9.18
2022-10-11T06:47:15.940Z,13.05
2022-10-11T06:49:44.786Z,10.45
2022-10-11T06:52:11.151Z,10.90
2022-10-11T06:54:41.227Z,9.55
2022-10-11T06:57:10.650Z,12.35
2022-10-11T06:59:37.238Z,6.90
2022-10-11T07:02:05.191Z,9.88
2022-10-11T07:04:33.851Z,10.80
2022-10-11T07:07:00.332Z,9.15
2022-10-11T07:09:26.673Z,7.72
2022-10-11T07:11:54.174Z,9.15
2022-10-11T07:14:22.554Z,7.22
2022-10-11T07:16:48.896Z,8.55
2022-10-11T07:19:15.377Z,9.65
2022-10-11T07:21:54.613Z,9.70
2022-10-11T07:24:21.280Z,8.23
2022-10-11T07:26:47.735Z,8.80
2022-10-11T07:29:16.494Z,10.65
2022-10-11T07:31:43.550Z,8.85
2022-10-11T07:34:10.715Z,11.27
2022-10-11T07:36:37.654Z,11.73
2022-10-11T07:39:06.114Z,13.15
2022-10-11T07:41:32.728Z,13.18
2022-10-11T07:44:02.073Z,8.20
2022-10-11T07:46:28.505Z,12.57
2022-10-11T07:48:58.089Z,9.13
2022-10-11T07:51:25.366Z,11.95
2022-10-11T07:53:55.528Z,11.98
2022-10-11T07:56:27.362Z,10.02
2022-10-11T07:58:58.525Z,11.63
2022-10-11T08:01:26.616Z,8.25
2022-10-11T08:03:53.795Z,16.25
2022-10-11T08:06:22.980Z,11.98
2022-10-11T08:08:49.995Z,8.63
2022-10-11T08:11:26.611Z,12.48
2022-10-11T08:13:53.879Z,8.20
2022-10-11T08:16:20.917Z,15.82
2022-10-11T08:18:47.401Z,8.98
2022-10-11T08:21:16.273Z,10.02
2022-10-11T08:23:42.828Z,12.93
2022-10-11T08:26:09.783Z,12.85
2022-10-11T08:28:36.750Z,13.25
2022-10-11T08:31:03.489Z,10.32
2022-10-11T08:33:30.906Z,7.57
2022-10-11T08:35:57.469Z,9.07
2022-10-11T08:38:24.487Z,12.73
2022-10-11T08:40:57.293Z,9.80
2022-10-11T08:44:06.768Z,10.77
2022-10-11T08:46:39.099Z,10.65
2022-10-11T08:49:07.401Z,8.52
2022-10-11T08:51:44.462Z,10.85
2022-10-11T08:54:33.212Z,10.27
2022-10-11T08:57:03.801Z,6.78
2022-10-11T08:59:46.447Z,9.70
2022-10-11T09:02:55.494Z,15.27
2022-10-11T09:05:20.523Z,7.07
2022-10-11T09:08:11.406Z,9.38
2022-10-11T09:10:47.574Z,6.57
2022-10-11T09:13:42.657Z,5.88
2022-10-11T09:16:19.442Z,9.73
2022-10-11T09:19:13.515Z,8.88
2022-10-11T09:21:59.789Z,10.52
2022-10-11T09:24:30.616Z,11.00
2022-10-11T09:27:01.416Z,6.88
2022-10-11T09:30:06.949Z,11.90
2022-10-11T09:32:39.659Z,7.78
2022-10-11T09:35:24.363Z,11.23
2022-10-11T09:38:05.948Z,9.27
2022-10-11T09:41:01.593Z,5.95
2022-10-11T09:44:17.059Z,8.32
2022-10-11T09:46:47.552Z,6.93
2022-10-11T09:49:16.321Z,7.28
2022-10-11T09:51:58.005Z,9.25
2022-10-11T09:54:41.448Z,8.15
2022-10-11T09:57:19.983Z,12.40
2022-10-11T10:00:18.866Z,8.52
2022-10-11T10:02:49.309Z,7.97
2022-10-11T10:05:42.844Z,7.88
2022-10-11T10:08:09.278Z,9.77
2022-10-11T10:10:48.889Z,9.00
2022-10-11T10:13:20.930Z,9.73
2022-10-11T10:15:51.005Z,8.57
2022-10-11T10:18:26.867Z,9.05
2022-10-11T10:20:56.686Z,7.68
2022-10-11T10:23:31.713Z,8.38
2022-10-11T10:26:16.615Z,7.95
2022-10-11T10:29:15.762Z,5.70
2022-10-11T10:32:12.813Z,8.23
2022-10-11T10:34:51.145Z,10.20
2022-10-11T10:40:09.882Z,7.53
2022-10-11T10:42:37.183Z,9.50
2022-10-11T10:45:22.139Z,8.00
2022-10-11T10:49:01.774Z,7.30
2022-10-11T10:52:06.656Z,7.25
2022-10-11T10:54:38.993Z,4.88
2022-10-11T10:57:28.024Z,8.60
2022-10-11T11:00:32.752Z,5.13
2022-10-11T11:03:22.970Z,8.23
2022-10-11T11:06:04.534Z,8.25
2022-10-11T11:08:50.168Z,7.00
2022-10-11T11:11:16.431Z,6.57
2022-10-11T11:14:06.508Z,6.72
2022-10-11T11:16:44.935Z,7.93
2022-10-11T11:19:26.404Z,6.43
2022-10-11T11:22:32.896Z,7.13
2022-10-11T11:25:21.995Z,10.10
2022-10-11T11:28:05.281Z,8.20
2022-10-11T11:31:02.449Z,11.15
2022-10-11T11:33:58.810Z,10.65
2022-10-11T11:36:37.351Z,8.35
2022-10-11T11:39:12.317Z,8.88
2022-10-11T11:41:48.413Z,9.00
2022-10-11T11:47:28.073Z,6.38
2022-10-11T11:50:04.770Z,6.45
2022-10-11T11:52:46.593Z,8.70
2022-10-11T11:55:38.713Z,7.00
2022-10-11T11:58:17.935Z,6.90
2022-10-11T12:01:13.481Z,8.02
2022-10-11T12:03:44.573Z,8.60
2022-10-11T12:06:14.985Z,9.05
2022-10-11T12:08:54.027Z,7.18
2022-10-11T12:11:35.384Z,10.05
2022-10-11T12:14:28.355Z,11.07
2022-10-11T12:17:22.717Z,7.20
2022-10-11T12:20:20.726Z,8.98
2022-10-11T12:23:01.630Z,10.75
2022-10-11T12:25:28.715Z,7.90
2022-10-11T12:28:01.638Z,10.70
2022-10-11T12:30:56.069Z,10.95
2022-10-11T12:33:25.406Z,7.50
2022-10-11T12:35:54.741Z,12.75
2022-10-11T12:38:28.666Z,9.98
2022-10-11T12:41:00.620Z,8.02
2022-10-11T12:43:33.571Z,8.18
2022-10-11T12:46:33.840Z,7.53
2022-10-11T12:49:24.840Z,9.20
2022-10-11T12:51:51.162Z,8.37
2022-10-11T12:54:54.416Z,10.40
2022-10-11T12:57:26.783Z,11.10
2022-10-11T12:59:53.428Z,8.07
2022-10-11T13:02:40.139Z,7.88
2022-10-11T13:05:24.820Z,7.15
2022-10-11T13:07:54.476Z,9.10
2022-10-11T13:10:38.902Z,8.20
2022-10-11T13:13:16.320Z,9.13
2022-10-11T13:16:02.073Z,9.38
2022-10-11T13:18:28.638Z,12.35
2022-10-11T13:20:59.871Z,9.20
2022-10-11T13:23:37.537Z,8.48
2022-10-11T13:26:09.130Z,8.52
2022-10-11T13:28:36.731Z,6.95
2022-10-11T13:31:09.510Z,11.48
2022-10-11T13:33:46.891Z,13.77
2022-10-11T13:36:19.899Z,5.28
2022-10-11T13:38:58.567Z,9.75
2022-10-11T13:41:31.246Z,7.50
2022-10-11T13:43:59.946Z,6.90
2022-10-11T13:46:30.696Z,4.75
2022-10-11T13:49:05.096Z,7.53
2022-10-11T13:51:42.602Z,8.77
2022-10-11T13:54:13.622Z,8.23
2022-10-11T13:56:43.138Z,5.85
2022-10-11T13:59:36.246Z,9.15
2022-10-11T14:02:04.301Z,7.35
2022-10-11T14:04:40.648Z,9.75
2022-10-11T14:07:38.201Z,5.68
2022-10-11T14:10:08.986Z,7.78
2022-10-11T14:12:44.343Z,10.37
2022-10-11T14:15:24.267Z,17.67
2022-10-11T14:17:51.459Z,13.25
2022-10-11T14:20:22.698Z,9.70
2022-10-11T14:22:53.387Z,7.53
2022-10-11T14:25:22.817Z,6.85
2022-10-11T14:27:49.573Z,7.65
2022-10-11T14:30:27.628Z,13.00
2022-10-11T14:32:57.668Z,7.75
2022-10-11T14:35:32.137Z,8.60
2022-10-11T14:38:00.416Z,7.47
2022-10-11T14:40:30.012Z,5.32
2022-10-11T14:42:59.434Z,11.07
2022-10-11T14:45:27.292Z,6.85
2022-10-11T14:47:55.455Z,10.57
2022-10-11T14:50:30.899Z,7.82
2022-10-11T14:52:58.219Z,10.25
2022-10-11T14:55:25.103Z,8.15
2022-10-11T14:57:51.679Z,5.25
2022-10-11T15:00:24.373Z,6.57
2022-10-11T15:02:52.865Z,8.20
2022-10-11T15:05:20.523Z,9.13
2022-10-11T15:07:47.272Z,13.20
2022-10-11T15:10:22.400Z,9.95
2022-10-11T15:12:50.717Z,5.60
2022-10-11T15:15:23.062Z,7.38
2022-10-11T15:17:55.087Z,7.57
2022-10-11T15:20:33.490Z,7.95
2022-10-11T15:23:01.606Z,7.93
2022-10-11T15:25:28.986Z,9.20
2022-10-11T15:27:56.632Z,5.90
2022-10-11T15:30:30.061Z,6.63
2022-10-11T15:32:59.755Z,10.32
2022-10-11T15:35:34.179Z,8.32
2022-10-11T15:38:00.615Z,7.05
2022-10-11T15:40:30.171Z,9.57
2022-10-11T15:42:56.925Z,8.23
2022-10-11T15:45:23.891Z,9.07
2022-10-11T15:47:50.867Z,7.43
2022-10-11T15:50:35.181Z,10.50
2022-10-11T15:53:13.442Z,7.53
2022-10-11T15:55:43.631Z,12.13
2022-10-11T15:58:15.457Z,10.63
2022-10-11T16:03:11.650Z,10.55
2022-10-11T16:05:38.392Z,10.02
2022-10-11T16:08:04.943Z,12.45
2022-10-11T16:10:38.043Z,10.35
2022-10-11T16:13:05.208Z,8.63
2022-10-11T16:15:31.936Z,11.43
2022-10-11T16:17:58.671Z,10.82
2022-10-11T16:20:26.701Z,10.80
2022-10-11T16:22:54.400Z,9.25
2022-10-11T16:25:22.058Z,9.88
2022-10-11T16:27:49.013Z,11.40
2022-10-11T16:30:16.790Z,12.65
2022-10-11T16:32:44.347Z,13.90
2022-10-11T16:35:12.968Z,28.40
2022-10-11T16:37:40.025Z,22.00
2022-10-11T16:40:08.289Z,23.88
2022-10-11T16:42:35.572Z,16.60
2022-10-11T16:45:01.907Z,13.13
2022-10-11T16:47:28.266Z,10.48
2022-10-11T16:49:54.837Z,14.32
2022-10-11T16:52:21.410Z,11.52
2022-10-11T16:54:57.679Z,138.50
2022-10-11T16:57:27.924Z,65.93
2022-10-11T16:59:54.665Z,138.05
2022-10-11T17:02:31.384Z,108.80
2022-10-11T17:05:02.577Z,48.30
2022-10-11T17:07:32.317Z,21.80
2022-10-11T17:10:00.993Z,11.98
2022-10-11T17:12:31.980Z,10.65
2022-10-11T17:14:58.540Z,10.93
2022-10-11T17:17:24.982Z,14.73
2022-10-11T17:19:51.318Z,14.88
2022-10-11T17:22:20.443Z,15.93
2022-10-11T17:24:46.956Z,21.23
2022-10-11T17:27:13.587Z,27.90
2022-10-11T17:29:40.103Z,23.77
2022-10-11T17:32:06.611Z,24.63
2022-10-11T17:34:33.294Z,26.45
2022-10-11T17:37:04.803Z,21.80
2022-10-11T17:39:32.704Z,18.13
2022-10-11T17:42:04.826Z,24.55
2022-10-11T17:44:31.307Z,27.73
2022-10-11T17:46:57.705Z,27.35
2022-10-11T17:49:24.076Z,28.10
2022-10-11T17:51:50.433Z,45.60
2022-10-11T17:54:16.824Z,59.97
2022-10-11T17:56:43.260Z,63.55
2022-10-11T17:59:16.168Z,57.65
2022-10-11T18:01:43.307Z,36.92
2022-10-11T18:04:16.544Z,33.10
2022-10-11T18:06:45.088Z,29.13
2022-10-11T18:09:13.012Z,25.13
2022-10-11T18:11:39.624Z,20.42
2022-10-11T18:14:06.278Z,23.58
2022-10-11T18:16:33.095Z,21.13
2022-10-11T18:19:01.712Z,26.48
2022-10-11T18:21:34.018Z,20.58
2022-10-11T18:24:03.510Z,21.42
2022-10-11T18:26:30.888Z,39.85
2022-10-11T18:28:58.906Z,50.15
2022-10-11T18:31:27.592Z,27.98
2022-10-11T18:33:54.737Z,24.70
2022-10-11T18:36:24.332Z,44.58
2022-10-11T18:38:57.993Z,41.60
2022-10-11T18:41:30.553Z,41.58
2022-10-11T18:44:00.520Z,27.50
2022-10-11T18:46:27.749Z,25.55
2022-10-11T18:48:56.702Z,29.13
2022-10-11T18:51:28.979Z,29.42
2022-10-11T18:53:58.598Z,27.25
2022-10-11T18:56:26.822Z,32.55
2022-10-11T18:58:54.809Z,23.77
2022-10-11T19:01:29.973Z,22.52
2022-10-11T19:03:58.145Z,23.40
2022-10-11T19:06:36.995Z,18.80
2022-10-11T19:09:07.091Z,17.05
2022-10-11T19:11:33.713Z,21.88
2022-10-11T19:14:01.935Z,19.48
2022-10-11T19:16:32.695Z,18.55
2022-10-11T19:18:59.814Z,17.98
2022-10-11T19:21:26.558Z,20.75
2022-10-11T19:23:55.396Z,24.55
2022-10-11T19:26:26.231Z,24.20
2022-10-11T19:28:59.137Z,22.52
2022-10-11T19:31:26.554Z,26.63
2022-10-11T19:33:53.724Z,25.75
2022-10-11T19:36:20.363Z,20.83
2022-10-11T19:38:49.306Z,19.02
2022-10-11T19:41:20.522Z,16.42
2022-10-11T19:43:46.948Z,14.38
2022-10-11T19:46:20.272Z,12.63
2022-10-11T19:48:53.067Z,13.10
2022-10-11T19:51:27.498Z,16.83
2022-10-11T19:54:00.803Z,16.80
2022-10-11T19:56:29.658Z,32.75
2022-10-11T19:58:56.107Z,29.85
2022-10-11T20:01:25.372Z,35.88
2022-10-11T20:03:54.557Z,36.15
2022-10-11T20:06:22.705Z,27.70
2022-10-11T20:09:10.315Z,20.23
2022-10-11T20:11:39.247Z,18.90
2022-10-11T20:14:06.115Z,24.33
2022-10-11T20:16:32.653Z,21.35
2022-10-11T20:18:59.322Z,25.70
2022-10-11T20:21:28.732Z,28.92
2022-10-11T20:24:00.905Z,35.92
2022-10-11T20:28:56.155Z,28.20
2022-10-11T20:31:28.738Z,26.95
2022-10-11T20:33:57.403Z,18.33
2022-10-11T20:36:25.253Z,20.40
2022-10-11T20:38:52.227Z,17.13
2022-10-11T20:41:22.029Z,22.80
2022-10-11T20:43:50.360Z,17.17
2022-10-11T20:46:19.592Z,19.38
2022-10-11T20:49:01.578Z,16.42
2022-10-11T20:51:30.776Z,17.65
2022-10-11T20:53:58.438Z,13.15
2022-10-11T20:56:24.962Z,13.32
2022-10-11T20:58:54.725Z,14.98
2022-10-11T21:01:26.109Z,10.32
2022-10-11T21:03:52.864Z,16.90
2022-10-11T21:06:19.459Z,12.25
2022-10-11T21:08:45.804Z,16.27
2022-10-11T21:11:12.171Z,12.43
2022-10-11T21:13:38.527Z,10.35
2022-10-11T21:16:11.999Z,10.65
2022-10-11T21:18:38.798Z,9.90
2022-10-11T21:21:10.737Z,11.98
2022-10-11T21:23:37.167Z,12.90
2022-10-11T21:26:05.808Z,10.63
2022-10-11T21:28:32.986Z,10.43
2022-10-11T21:31:04.523Z,10.15
2022-10-11T21:33:30.894Z,9.57
2022-10-11T21:35:57.543Z,8.15
2022-10-11T21:38:26.911Z,7.88
2022-10-11T21:40:53.536Z,9.27
2022-10-11T21:43:20.047Z,9.73
2022-10-11T21:45:46.389Z,9.02
2022-10-11T21:48:12.772Z,10.95
2022-10-11T21:50:39.241Z,10.38
2022-10-11T21:53:05.549Z,8.45
2022-10-11T21:55:31.921Z,12.10
2022-10-11T21:57:58.450Z,8.88
2022-10-11T22:00:24.765Z,9.00
2022-10-11T22:02:53.415Z,8.48
2022-10-11T22:05:19.825Z,6.93
2022-10-11T22:07:48.834Z,7.32
2022-10-11T22:10:15.207Z,6.15
2022-10-11T22:12:41.550Z,7.35
2022-10-11T22:15:08.495Z,7.32
2022-10-11T22:17:34.807Z,7.85
2022-10-11T22:20:01.473Z,6.53
2022-10-11T22:22:27.813Z,9.05
2022-10-11T22:24:54.694Z,6.40
2022-10-11T22:27:21.530Z,8.90
2022-10-11T22:29:48.128Z,10.48
2022-10-11T22:32:14.462Z,8.88
2022-10-11T22:34:40.793Z,8.52
2022-10-11T22:37:09.914Z,11.98
2022-10-11T22:39:36.628Z,9.30
2022-10-11T22:42:03.040Z,7.43
2022-10-11T22:44:29.337Z,8.35
2022-10-11T22:46:55.766Z,8.00
2022-10-11T22:49:22.534Z,7.82
2022-10-11T22:51:49.576Z,9.35
2022-10-11T22:54:15.906Z,8.93
2022-10-11T22:56:42.467Z,9.43
2022-10-11T22:59:09.682Z,10.65
2022-10-11T23:01:36.135Z,9.10
2022-10-11T23:04:02.559Z,10.88
2022-10-11T23:06:29.434Z,9.65
2022-10-11T23:08:55.995Z,8.80
2022-10-11T23:11:25.077Z,11.30
2022-10-11T23:13:51.713Z,11.10
2022-10-11T23:16:18.016Z,8.82
2022-10-11T23:18:44.530Z,10.60
2022-10-11T23:21:23.006Z,8.63
2022-10-11T23:23:53.629Z,10.65
2022-10-11T23:26:20.505Z,14.68
2022-10-11T23:28:47.351Z,12.10
2022-10-11T23:31:16.652Z,16.02
2022-10-11T23:33:47.388Z,9.38
2022-10-11T23:36:24.999Z,12.40
2022-10-11T23:38:56.223Z,10.07
2022-10-11T23:41:25.373Z,11.83
2022-10-11T23:43:52.124Z,10.60
2022-10-11T23:46:19.029Z,11.70
2022-10-11T23:48:45.666Z,9.32
2022-10-11T23:51:13.385Z,9.40
2022-10-11T23:53:39.830Z,10.68
2022-10-11T23:56:06.802Z,10.43
2022-10-11T23:58:33.504Z,9.68
